createdAt,value
2017-11-20T00:04:17.161Z,2.23
2017-11-20T00:09:19.748Z,2.60
2017-11-20T00:14:22.292Z,2.70
2017-11-20T00:19:24.848Z,2.83
2017-11-20T00:24:27.428Z,2.60
2017-11-20T00:29:30.601Z,2.73
2017-11-20T00:34:33.140Z,2.97
2017-11-20T00:39:35.695Z,3.20
2017-11-20T00:44:38.444Z,2.70
2017-11-20T00:49:41.014Z,3.30
2017-11-20T00:54:43.555Z,2.87
2017-11-20T00:59:46.117Z,2.83
2017-11-20T01:04:48.661Z,3.90
2017-11-20T01:09:51.228Z,3.63
2017-11-20T01:14:53.811Z,2.60
2017-11-20T01:19:56.372Z,2.97
2017-11-20T01:24:58.911Z,3.07
2017-11-20T01:30:01.495Z,2.80
2017-11-20T01:35:04.044Z,2.87
2017-11-20T01:40:08.118Z,3.53
2017-11-20T01:45:10.652Z,3.00
2017-11-20T01:50:13.203Z,2.63
2017-11-20T01:55:15.757Z,5.10
2017-11-20T02:00:18.349Z,3.07
2017-11-20T02:05:20.892Z,3.20
2017-11-20T02:10:23.448Z,2.70
2017-11-20T02:15:26.036Z,2.67
2017-11-20T02:20:28.611Z,2.50
2017-11-20T02:25:31.175Z,2.60
2017-11-20T02:30:33.707Z,2.90
2017-11-20T02:35:36.856Z,2.87
2017-11-20T02:40:39.407Z,3.67
2017-11-20T02:45:42.747Z,2.83
2017-11-20T02:50:45.293Z,2.57
2017-11-20T02:55:47.876Z,3.37
2017-11-20T03:00:50.408Z,2.70
2017-11-20T03:05:52.987Z,3.23
2017-11-20T03:10:55.645Z,2.83
2017-11-20T03:15:58.192Z,3.50
2017-11-20T03:21:00.748Z,3.60
2017-11-20T03:26:03.294Z,3.07
2017-11-20T03:31:06.075Z,3.63
2017-11-20T03:36:08.642Z,3.30
2017-11-20T03:41:11.185Z,3.27
2017-11-20T03:46:13.744Z,3.67
2017-11-20T03:51:16.292Z,3.00
2017-11-20T03:56:18.855Z,3.53
2017-11-20T04:01:21.384Z,2.90
2017-11-20T04:06:23.946Z,3.10
2017-11-20T04:11:26.504Z,3.20
2017-11-20T04:16:29.040Z,3.20
2017-11-20T04:21:31.585Z,2.60
2017-11-20T04:26:34.642Z,3.23
2017-11-20T04:31:37.203Z,3.10
2017-11-20T04:36:39.739Z,3.37
2017-11-20T04:41:42.327Z,3.27
2017-11-20T04:46:44.878Z,2.60
2017-11-20T04:51:47.445Z,2.60
2017-11-20T04:56:49.995Z,2.57
2017-11-20T05:01:52.544Z,3.37
2017-11-20T05:06:55.125Z,3.73
2017-11-20T05:11:57.666Z,2.77
2017-11-20T05:17:00.211Z,2.47
2017-11-20T05:22:04.519Z,3.40
2017-11-20T05:27:07.088Z,3.17
2017-11-20T05:32:09.662Z,2.97
2017-11-20T05:37:12.975Z,3.40
2017-11-20T05:42:15.520Z,4.80
2017-11-20T05:47:18.070Z,3.93
2017-11-20T05:52:21.943Z,3.20
2017-11-20T05:57:24.484Z,3.43
2017-11-20T06:02:27.023Z,4.60
2017-11-20T06:07:29.566Z,3.40
2017-11-20T06:12:32.123Z,4.27
2017-11-20T06:17:34.692Z,3.77
2017-11-20T06:22:37.257Z,4.60
2017-11-20T06:27:39.807Z,4.60
2017-11-20T06:32:42.352Z,4.30
2017-11-20T06:37:44.912Z,5.23
2017-11-20T06:42:47.462Z,3.67
2017-11-20T06:47:49.989Z,3.20
2017-11-20T06:52:53.320Z,3.97
2017-11-20T06:57:55.879Z,3.83
2017-11-20T07:02:58.439Z,2.93
2017-11-20T07:08:01.237Z,3.53
2017-11-20T07:13:03.872Z,3.80
2017-11-20T07:18:06.463Z,4.13
2017-11-20T07:23:09.030Z,3.50
2017-11-20T07:28:11.583Z,4.03
2017-11-20T07:33:14.126Z,4.87
2017-11-20T07:38:18.585Z,3.37
2017-11-20T07:43:21.149Z,3.60
2017-11-20T07:48:23.706Z,4.73
2017-11-20T07:53:26.275Z,3.70
2017-11-20T07:58:29.610Z,3.33
2017-11-20T08:03:32.160Z,3.30
2017-11-20T08:08:34.721Z,3.90
2017-11-20T08:13:37.269Z,3.90
2017-11-20T08:18:39.840Z,3.17
2017-11-20T08:23:42.408Z,2.60
2017-11-20T08:28:44.965Z,3.20
2017-11-20T08:33:47.513Z,3.00
2017-11-20T08:38:50.057Z,3.90
2017-11-20T08:43:52.608Z,2.73
2017-11-20T08:48:55.155Z,3.30
2017-11-20T08:53:57.697Z,3.37
2017-11-20T08:59:00.271Z,3.77
2017-11-20T09:04:02.808Z,3.57
2017-11-20T09:09:05.358Z,2.93
2017-11-20T09:14:07.932Z,2.93
2017-11-20T09:19:10.478Z,4.40
2017-11-20T09:24:13.919Z,2.80
2017-11-20T09:29:16.466Z,3.07
2017-11-20T09:34:19.008Z,3.27
2017-11-20T09:39:21.556Z,3.07
2017-11-20T09:44:24.108Z,3.40
2017-11-20T09:49:26.677Z,2.40
2017-11-20T09:54:29.237Z,2.60
2017-11-20T09:59:32.559Z,3.20
2017-11-20T10:04:35.149Z,3.47
2017-11-20T10:09:37.656Z,2.80
2017-11-20T10:14:40.968Z,4.27
2017-11-20T10:19:44.295Z,3.00
2017-11-20T10:24:46.858Z,3.27
2017-11-20T10:29:49.412Z,3.10
2017-11-20T10:34:51.956Z,3.03
2017-11-20T10:39:54.508Z,2.70
2017-11-20T10:44:57.056Z,4.20
2017-11-20T10:49:59.600Z,3.07
2017-11-20T10:55:02.144Z,3.70
2017-11-20T11:00:05.452Z,4.10
2017-11-20T11:05:07.996Z,3.10
2017-11-20T11:10:11.307Z,4.30
2017-11-20T11:15:13.847Z,3.63
2017-11-20T11:20:16.455Z,4.90
2017-11-20T11:25:19.076Z,3.83
2017-11-20T11:30:21.629Z,3.50
2017-11-20T11:35:24.168Z,4.83
2017-11-20T11:40:26.724Z,3.83
2017-11-20T11:45:29.269Z,3.93
2017-11-20T11:50:31.800Z,3.50
2017-11-20T11:55:35.121Z,4.20
2017-11-20T12:00:38.400Z,5.03
2017-11-20T12:05:40.960Z,4.50
2017-11-20T12:10:43.504Z,4.30
2017-11-20T12:15:46.052Z,3.67
2017-11-20T12:20:48.607Z,4.17
2017-11-20T12:25:51.930Z,4.23
2017-11-20T12:30:54.484Z,3.97
2017-11-20T12:35:57.049Z,3.20
2017-11-20T12:40:59.644Z,3.07
2017-11-20T12:46:02.188Z,3.50
2017-11-20T12:51:04.723Z,3.50
2017-11-20T12:56:08.024Z,3.80
2017-11-20T13:01:11.261Z,3.70
2017-11-20T13:06:14.601Z,3.43
2017-11-20T13:11:17.166Z,2.87
2017-11-20T13:16:19.716Z,3.07
2017-11-20T13:21:22.264Z,2.80
2017-11-20T13:26:24.820Z,2.00
2017-11-20T13:31:27.465Z,1.73
2017-11-20T13:36:30.009Z,2.60
2017-11-20T13:41:32.549Z,2.10
2017-11-20T13:46:35.124Z,1.63
2017-11-20T13:51:37.692Z,4.20
2017-11-20T13:56:40.231Z,2.80
2017-11-20T14:01:42.776Z,2.50
2017-11-20T14:06:45.375Z,2.60
2017-11-20T14:11:47.928Z,2.03
2017-11-20T14:16:50.480Z,2.63
2017-11-20T14:21:53.029Z,1.97
2017-11-20T14:26:55.588Z,2.03
2017-11-20T14:31:58.139Z,2.00
2017-11-20T14:37:00.707Z,2.20
2017-11-20T14:42:03.248Z,2.27
2017-11-20T14:47:11.404Z,2.30
2017-11-20T14:52:17.500Z,2.10
2017-11-20T14:57:20.052Z,2.07
2017-11-20T15:02:23.379Z,2.90
2017-11-20T15:07:26.715Z,2.93
2017-11-20T15:12:29.247Z,4.07
2017-11-20T15:17:31.830Z,13.83
2017-11-20T15:22:34.421Z,4.67
2017-11-20T15:27:36.990Z,4.33
2017-11-20T15:32:40.316Z,5.33
2017-11-20T15:37:42.903Z,4.57
2017-11-20T15:42:45.460Z,4.47
2017-11-20T15:47:48.009Z,3.83
2017-11-20T15:52:50.564Z,3.70
2017-11-20T15:57:53.096Z,4.47
2017-11-20T16:02:56.383Z,4.70
2017-11-20T16:07:58.988Z,4.13
2017-11-20T16:13:01.557Z,5.23
2017-11-20T16:18:04.732Z,5.00
2017-11-20T16:23:07.315Z,4.53
2017-11-20T16:28:10.649Z,4.80
2017-11-20T16:33:13.204Z,5.03
2017-11-20T16:38:15.787Z,4.70
2017-11-20T16:43:18.329Z,4.20
2017-11-20T16:48:20.928Z,5.70
2017-11-20T16:53:23.502Z,5.40
2017-11-20T16:58:52.232Z,6.60
2017-11-20T17:03:55.552Z,6.90
2017-11-20T17:08:58.107Z,5.17
2017-11-20T17:14:00.678Z,5.80
2017-11-20T17:19:03.948Z,4.73
2017-11-20T17:24:06.534Z,5.30
2017-11-20T17:29:09.110Z,5.97
2017-11-20T17:34:11.660Z,6.17
2017-11-20T17:39:14.993Z,6.90
2017-11-20T17:44:17.567Z,7.27
2017-11-20T17:49:20.184Z,8.70
2017-11-20T17:54:22.887Z,6.43
2017-11-20T17:59:25.587Z,5.80
2017-11-20T18:04:28.901Z,6.53
2017-11-20T18:09:31.453Z,6.60
2017-11-20T18:14:34.057Z,5.47
2017-11-20T18:19:36.642Z,6.07
2017-11-20T18:24:39.189Z,5.97
2017-11-20T18:29:42.500Z,7.00
2017-11-20T18:34:45.818Z,10.50
2017-11-20T18:39:49.188Z,5.97
2017-11-20T18:44:51.745Z,6.30
2017-11-20T18:49:55.105Z,6.00
2017-11-20T18:54:59.819Z,6.10
2017-11-20T19:00:15.196Z,5.63
2017-11-20T19:05:30.902Z,5.27
2017-11-20T19:10:35.566Z,5.03
2017-11-20T19:15:38.180Z,4.70
2017-11-20T19:20:41.087Z,6.53
2017-11-20T19:25:43.989Z,5.03
2017-11-20T19:30:46.575Z,6.07
2017-11-20T19:35:50.030Z,6.60
2017-11-20T19:40:52.665Z,5.67
2017-11-20T19:45:56.019Z,6.30
2017-11-20T19:50:58.618Z,6.17
2017-11-20T19:56:01.275Z,5.33
2017-11-20T20:01:03.868Z,5.90
2017-11-20T20:06:06.532Z,5.90
2017-11-20T20:11:09.214Z,7.17
2017-11-20T20:16:20.740Z,6.67
2017-11-20T20:21:23.328Z,8.03
2017-11-20T20:26:25.991Z,6.77
2017-11-20T20:31:28.582Z,6.93
2017-11-20T20:36:31.159Z,7.87
2017-11-20T20:41:33.778Z,7.87
2017-11-20T20:46:37.165Z,8.03
2017-11-20T20:51:39.758Z,8.20
2017-11-20T20:56:42.608Z,6.90
2017-11-20T21:01:45.183Z,8.30
2017-11-20T21:06:53.552Z,8.13
2017-11-20T21:12:01.839Z,6.87
2017-11-20T21:17:05.304Z,6.70
2017-11-20T21:22:07.865Z,6.00
2017-11-20T21:27:10.444Z,5.50
2017-11-20T21:32:13.113Z,6.73
2017-11-20T21:37:15.672Z,6.50
2017-11-20T21:42:18.248Z,7.00
2017-11-20T21:47:20.797Z,5.93
2017-11-20T21:52:24.163Z,5.40
2017-11-20T21:57:26.745Z,5.70
2017-11-20T22:02:29.286Z,6.13
2017-11-20T22:07:31.845Z,5.97
2017-11-20T22:12:46.153Z,4.93
2017-11-20T22:17:48.701Z,6.63
2017-11-20T22:22:51.264Z,4.80
2017-11-20T22:27:54.585Z,5.63
2017-11-20T22:32:57.132Z,6.17
2017-11-20T22:37:59.700Z,5.77
2017-11-20T22:43:02.243Z,5.03
2017-11-20T22:48:04.817Z,6.37
2017-11-20T22:53:08.727Z,5.73
2017-11-20T22:58:11.295Z,5.23
2017-11-20T23:03:13.865Z,5.30
2017-11-20T23:08:16.428Z,5.20
2017-11-20T23:13:18.985Z,5.00
2017-11-20T23:18:21.512Z,6.60
2017-11-20T23:23:24.197Z,6.10
2017-11-20T23:28:26.756Z,5.87
2017-11-20T23:33:29.301Z,7.70
2017-11-20T23:38:31.861Z,6.83
2017-11-20T23:43:34.413Z,7.23
2017-11-20T23:48:36.980Z,7.60
2017-11-20T23:53:39.562Z,6.70
2017-11-20T23:58:42.132Z,7.97
